createdAt,value
2023-04-13T00:01:12.689Z,84.15
2023-04-13T00:03:40.160Z,82.55
2023-04-13T00:06:11.328Z,78.53
2023-04-13T00:08:38.846Z,75.13
2023-04-13T00:11:07.679Z,83.53
2023-04-13T00:13:41.734Z,77.60
2023-04-13T00:16:10.097Z,69.63
2023-04-13T00:18:37.314Z,73.63
2023-04-13T00:21:05.015Z,76.70
2023-04-13T00:23:32.317Z,78.32
2023-04-13T00:26:01.770Z,76.90
2023-04-13T00:28:30.162Z,73.13
2023-04-13T00:30:59.732Z,71.00
2023-04-13T00:33:26.952Z,71.68
2023-04-13T00:35:54.324Z,74.05
2023-04-13T00:38:24.234Z,77.00
2023-04-13T00:40:54.642Z,81.40
2023-04-13T00:43:22.096Z,83.85
2023-04-13T00:45:51.185Z,85.35
2023-04-13T00:48:18.744Z,81.75
2023-04-13T00:50:47.759Z,74.93
2023-04-13T00:53:16.029Z,77.80
2023-04-13T00:55:44.596Z,77.50
2023-04-13T00:58:13.405Z,89.03
2023-04-13T01:00:43.415Z,80.07
2023-04-13T01:03:11.629Z,91.18
2023-04-13T01:05:51.945Z,79.75
2023-04-13T01:08:29.404Z,85.32
2023-04-13T01:10:59.108Z,79.75
2023-04-13T01:13:42.863Z,95.40
2023-04-13T01:16:20.077Z,79.13
2023-04-13T01:18:52.411Z,80.47
2023-04-13T01:21:24.292Z,79.72
2023-04-13T01:24:29.408Z,76.03
2023-04-13T01:27:11.776Z,71.70
2023-04-13T01:29:39.493Z,90.93
2023-04-13T01:32:08.754Z,80.97
2023-04-13T01:34:38.404Z,85.35
2023-04-13T01:37:08.804Z,83.97
2023-04-13T01:39:39.981Z,95.82
2023-04-13T01:42:26.129Z,89.35
2023-04-13T01:44:53.405Z,93.90
2023-04-13T01:47:22.765Z,83.15
2023-04-13T01:50:26.938Z,84.22
2023-04-13T01:53:08.254Z,86.63
2023-04-13T01:55:42.121Z,84.70
2023-04-13T01:58:13.230Z,91.75
2023-04-13T02:00:41.759Z,91.80
2023-04-13T02:03:13.349Z,86.97
2023-04-13T02:05:40.780Z,88.93
2023-04-13T02:08:08.898Z,82.85
2023-04-13T02:13:10.475Z,116.32
2023-04-13T02:15:38.897Z,102.82
2023-04-13T02:18:07.821Z,118.35
2023-04-13T02:20:42.908Z,111.95
2023-04-13T02:23:12.081Z,99.55
2023-04-13T02:25:39.259Z,100.10
2023-04-13T02:28:07.390Z,92.90
2023-04-13T02:30:35.123Z,133.65
2023-04-13T02:33:02.531Z,136.55
2023-04-13T02:35:30.675Z,100.43
2023-04-13T02:37:58.285Z,76.88
2023-04-13T02:40:25.536Z,81.70
2023-04-13T02:42:53.234Z,116.95
2023-04-13T02:45:21.367Z,152.57
2023-04-13T02:47:49.913Z,84.18
2023-04-13T02:50:17.324Z,94.95
2023-04-13T02:52:55.018Z,90.70
2023-04-13T02:55:22.220Z,91.25
2023-04-13T02:57:58.032Z,97.22
2023-04-13T03:00:25.860Z,84.55
2023-04-13T03:03:00.349Z,86.43
2023-04-13T03:05:33.004Z,107.28
2023-04-13T03:08:01.296Z,103.40
2023-04-13T03:10:31.250Z,220.45
2023-04-13T03:13:00.608Z,179.35
2023-04-13T03:15:27.956Z,182.63
2023-04-13T03:17:59.070Z,155.02
2023-04-13T03:20:29.222Z,165.85
2023-04-13T03:23:02.024Z,158.75
2023-04-13T03:25:34.087Z,154.18
2023-04-13T03:28:03.652Z,147.82
2023-04-13T03:30:36.463Z,160.25
2023-04-13T03:33:04.301Z,188.73
2023-04-13T03:35:34.951Z,131.50
2023-04-13T03:38:04.996Z,137.00
2023-04-13T03:40:36.870Z,154.30
2023-04-13T03:43:04.383Z,149.75
2023-04-13T03:45:35.153Z,138.27
2023-04-13T03:48:08.446Z,139.50
2023-04-13T03:50:36.036Z,157.38
2023-04-13T03:53:05.669Z,160.00
2023-04-13T03:55:33.246Z,153.50
2023-04-13T03:58:05.988Z,151.73
2023-04-13T04:00:33.798Z,136.77
2023-04-13T04:03:23.096Z,139.18
2023-04-13T04:05:57.246Z,131.60
2023-04-13T04:08:27.869Z,118.10
2023-04-13T04:10:58.519Z,118.20
2023-04-13T04:13:27.323Z,111.47
2023-04-13T04:15:58.220Z,115.13
2023-04-13T04:18:27.712Z,119.20
2023-04-13T04:20:55.103Z,129.43
2023-04-13T04:23:28.159Z,134.05
2023-04-13T04:26:02.938Z,133.65
2023-04-13T04:28:40.925Z,124.10
2023-04-13T04:31:12.464Z,127.55
2023-04-13T04:33:44.471Z,111.43
2023-04-13T04:36:14.466Z,117.57
2023-04-13T04:38:58.062Z,104.03
2023-04-13T04:41:26.630Z,108.88
2023-04-13T04:43:57.728Z,113.47
2023-04-13T04:46:29.840Z,112.95
2023-04-13T04:49:01.826Z,106.77
2023-04-13T04:51:30.285Z,105.85
2023-04-13T04:54:01.759Z,103.22
2023-04-13T04:56:29.441Z,102.95
2023-04-13T04:58:57.128Z,105.97
2023-04-13T05:01:35.017Z,100.25
2023-04-13T05:04:11.043Z,102.15
2023-04-13T05:06:42.195Z,98.32
2023-04-13T05:11:48.349Z,93.07
2023-04-13T05:14:18.135Z,88.28
2023-04-13T05:16:46.013Z,91.38
2023-04-13T05:19:35.471Z,93.88
2023-04-13T05:22:22.820Z,95.88
2023-04-13T05:24:57.558Z,108.35
2023-04-13T05:27:25.296Z,108.10
2023-04-13T05:29:56.598Z,100.40
2023-04-13T05:32:25.816Z,95.03
2023-04-13T05:34:55.937Z,85.45
2023-04-13T05:37:27.208Z,84.05
2023-04-13T05:39:54.993Z,78.43
2023-04-13T05:42:28.440Z,83.25
2023-04-13T05:44:56.742Z,86.38
2023-04-13T05:47:25.952Z,82.60
2023-04-13T05:49:58.321Z,86.70
2023-04-13T05:52:25.869Z,79.22
2023-04-13T05:54:54.248Z,86.15
2023-04-13T05:57:23.949Z,81.07
2023-04-13T05:59:55.116Z,78.63
2023-04-13T06:02:30.469Z,77.28
2023-04-13T06:04:58.241Z,58.85
2023-04-13T06:07:26.157Z,53.58
2023-04-13T06:09:53.985Z,55.97
2023-04-13T06:12:22.089Z,58.67
2023-04-13T06:14:49.633Z,51.17
2023-04-13T06:17:16.970Z,50.25
2023-04-13T06:19:44.538Z,54.95
2023-04-13T06:22:11.775Z,50.03
2023-04-13T06:24:41.433Z,48.60
2023-04-13T06:27:11.297Z,48.58
2023-04-13T06:29:40.582Z,49.45
2023-04-13T06:32:10.828Z,43.67
2023-04-13T06:34:38.567Z,37.47
2023-04-13T06:37:07.501Z,39.30
2023-04-13T06:39:44.228Z,38.97
2023-04-13T06:42:11.998Z,31.27
2023-04-13T06:45:00.204Z,31.95
2023-04-13T06:47:32.942Z,34.15
2023-04-13T06:50:06.726Z,35.70
2023-04-13T06:52:37.557Z,32.67
2023-04-13T06:55:05.950Z,26.83
2023-04-13T06:57:37.996Z,22.23
2023-04-13T07:00:21.844Z,24.80
2023-04-13T07:02:58.217Z,25.05
2023-04-13T07:05:26.122Z,23.48
2023-04-13T07:07:56.282Z,33.85
2023-04-13T07:10:24.270Z,22.58
2023-04-13T07:12:52.713Z,20.25
2023-04-13T07:15:23.188Z,20.20
2023-04-13T07:17:50.450Z,20.77
2023-04-13T07:20:18.263Z,34.65
2023-04-13T07:22:47.505Z,25.35
2023-04-13T07:25:14.947Z,24.63
2023-04-13T07:27:42.152Z,23.60
2023-04-13T07:30:09.937Z,28.20
2023-04-13T07:32:42.357Z,31.40
2023-04-13T07:35:10.759Z,28.70
2023-04-13T07:37:39.635Z,25.48
2023-04-13T07:40:09.491Z,35.67
2023-04-13T07:42:39.317Z,33.00
2023-04-13T07:45:07.872Z,23.45
2023-04-13T07:47:35.162Z,22.17
2023-04-13T07:50:09.569Z,18.92
2023-04-13T07:52:38.073Z,22.83
2023-04-13T07:55:07.234Z,26.63
2023-04-13T07:57:38.644Z,23.55
2023-04-13T08:00:08.433Z,25.48
2023-04-13T08:02:44.976Z,29.83
2023-04-13T08:05:17.859Z,22.55
2023-04-13T08:07:46.833Z,25.40
2023-04-13T08:10:16.620Z,24.60
2023-04-13T08:12:44.574Z,25.30
2023-04-13T08:15:15.127Z,26.08
2023-04-13T08:17:42.837Z,25.90
2023-04-13T08:20:10.937Z,26.92
2023-04-13T08:22:38.557Z,23.33
2023-04-13T08:25:06.772Z,26.85
2023-04-13T08:27:34.602Z,26.67
2023-04-13T08:30:04.462Z,23.75
2023-04-13T08:32:42.981Z,26.98
2023-04-13T08:35:11.976Z,28.15
2023-04-13T08:37:39.739Z,31.13
2023-04-13T08:40:12.914Z,24.13
2023-04-13T08:42:42.999Z,26.25
2023-04-13T08:45:12.266Z,26.95
2023-04-13T08:47:44.334Z,29.75
2023-04-13T08:50:12.547Z,30.30
2023-04-13T08:52:47.894Z,26.75
2023-04-13T08:55:18.136Z,25.05
2023-04-13T08:57:51.234Z,26.27
2023-04-13T09:00:19.928Z,24.83
2023-04-13T09:03:03.019Z,24.98
2023-04-13T09:05:34.308Z,27.08
2023-04-13T09:08:08.046Z,32.95
2023-04-13T09:10:38.360Z,25.63
2023-04-13T09:13:05.955Z,31.67
2023-04-13T09:15:34.385Z,29.48
2023-04-13T09:18:20.529Z,30.42
2023-04-13T09:23:25.529Z,22.60
2023-04-13T09:26:06.954Z,24.00
2023-04-13T09:28:34.353Z,23.92
2023-04-13T09:31:03.726Z,25.73
2023-04-13T09:33:36.250Z,23.05
2023-04-13T09:36:11.657Z,24.30
2023-04-13T09:38:38.982Z,23.77
2023-04-13T09:41:07.517Z,21.63
2023-04-13T09:43:36.756Z,21.95
2023-04-13T09:46:05.814Z,22.45
2023-04-13T09:48:33.390Z,22.70
2023-04-13T09:51:06.930Z,25.55
2023-04-13T09:53:46.548Z,27.10
2023-04-13T09:56:14.381Z,24.52
2023-04-13T09:58:44.380Z,24.50
2023-04-13T10:01:12.751Z,22.67
2023-04-13T10:03:40.166Z,20.98
2023-04-13T10:06:08.518Z,19.05
2023-04-13T10:08:40.335Z,18.90
2023-04-13T10:11:15.164Z,56.65
2023-04-13T10:13:52.824Z,18.25
2023-04-13T10:16:59.825Z,21.17
2023-04-13T10:19:31.234Z,19.95
2023-04-13T10:21:59.288Z,40.83
2023-04-13T10:24:30.533Z,28.00
2023-04-13T10:27:01.947Z,17.35
2023-04-13T10:29:30.040Z,28.95
2023-04-13T10:32:03.588Z,21.55
2023-04-13T10:34:34.470Z,18.05
2023-04-13T10:37:06.868Z,37.70
2023-04-13T10:39:36.155Z,24.00
2023-04-13T10:42:08.597Z,20.17
2023-04-13T10:44:48.817Z,20.00
2023-04-13T10:47:18.460Z,15.93
2023-04-13T10:49:46.855Z,18.55
2023-04-13T10:52:15.654Z,18.95
2023-04-13T10:54:44.034Z,16.85
2023-04-13T10:57:12.429Z,18.55
2023-04-13T10:59:58.889Z,19.35
2023-04-13T11:02:32.368Z,19.27
2023-04-13T11:05:01.424Z,18.02
2023-04-13T11:07:29.889Z,17.80
2023-04-13T11:12:29.517Z,14.40
2023-04-13T11:14:56.861Z,15.15
2023-04-13T11:17:24.687Z,16.77
2023-04-13T11:19:53.522Z,15.27
2023-04-13T11:22:29.122Z,19.02
2023-04-13T11:25:07.205Z,19.63
2023-04-13T11:27:35.212Z,15.32
2023-04-13T11:30:07.397Z,13.82
2023-04-13T11:32:36.582Z,14.20
2023-04-13T11:35:17.350Z,17.65
2023-04-13T11:37:48.890Z,14.23
2023-04-13T11:40:17.872Z,13.43
2023-04-13T11:42:49.685Z,13.82
2023-04-13T11:45:19.058Z,11.13
2023-04-13T11:47:49.890Z,13.88
2023-04-13T11:50:17.873Z,13.13
2023-04-13T11:52:46.841Z,10.85
2023-04-13T11:55:23.102Z,11.35
2023-04-13T11:57:53.507Z,15.57
2023-04-13T12:00:26.514Z,13.80
2023-04-13T12:05:32.338Z,14.50
2023-04-13T12:08:03.109Z,27.08
2023-04-13T12:10:41.386Z,14.18
2023-04-13T12:13:18.467Z,15.13
2023-04-13T12:16:06.036Z,9.95
2023-04-13T12:18:47.007Z,10.95
2023-04-13T12:21:20.472Z,14.05
2023-04-13T12:23:53.630Z,10.80
2023-04-13T12:28:56.894Z,9.27
2023-04-13T12:31:24.590Z,20.00
2023-04-13T12:33:52.214Z,14.75
2023-04-13T12:36:19.594Z,14.88
2023-04-13T12:38:47.120Z,7.53
2023-04-13T12:41:14.237Z,9.05
2023-04-13T12:43:41.654Z,9.13
2023-04-13T12:46:08.958Z,9.93
2023-04-13T12:48:36.736Z,19.83
2023-04-13T12:51:04.217Z,10.25
2023-04-13T12:53:31.858Z,7.32
2023-04-13T12:55:59.155Z,4.88
2023-04-13T12:58:26.731Z,9.07
2023-04-13T13:00:54.082Z,14.98
2023-04-13T13:03:23.802Z,8.60
2023-04-13T13:05:51.428Z,7.72
2023-04-13T13:08:19.036Z,8.85
2023-04-13T13:10:46.356Z,11.10
2023-04-13T13:13:17.175Z,27.42
2023-04-13T13:15:44.443Z,9.27
2023-04-13T13:18:13.039Z,9.13
2023-04-13T13:20:41.718Z,9.80
2023-04-13T13:23:11.110Z,8.75
2023-04-13T13:25:42.425Z,7.10
2023-04-13T13:28:15.385Z,6.18
2023-04-13T13:30:43.544Z,5.85
2023-04-13T13:33:11.480Z,17.67
2023-04-13T13:35:38.824Z,12.68
2023-04-13T13:38:06.914Z,13.10
2023-04-13T13:40:34.263Z,13.50
2023-04-13T13:43:01.916Z,13.07
2023-04-13T13:45:29.198Z,9.93
2023-04-13T13:47:58.540Z,12.77
2023-04-13T13:50:39.569Z,14.97
2023-04-13T13:53:08.764Z,10.55
2023-04-13T13:55:41.029Z,8.95
2023-04-13T13:58:08.770Z,15.35
2023-04-13T14:00:36.292Z,10.95
2023-04-13T14:03:04.215Z,15.18
2023-04-13T14:05:32.389Z,10.35
2023-04-13T14:08:00.121Z,8.77
2023-04-13T14:10:27.863Z,11.85
2023-04-13T14:12:55.922Z,10.45
2023-04-13T14:15:23.277Z,8.93
2023-04-13T14:18:02.513Z,9.60
2023-04-13T14:20:39.462Z,11.68
2023-04-13T14:23:09.695Z,13.20
2023-04-13T14:25:38.720Z,10.75
2023-04-13T14:28:07.067Z,12.23
2023-04-13T14:30:34.829Z,11.43
2023-04-13T14:33:04.199Z,10.73
2023-04-13T14:35:31.768Z,11.95
2023-04-13T14:37:59.804Z,59.97
2023-04-13T14:40:28.341Z,11.05
2023-04-13T14:42:56.003Z,13.90
2023-04-13T14:45:23.844Z,11.43
2023-04-13T14:47:53.861Z,11.43
2023-04-13T14:50:21.700Z,14.63
2023-04-13T14:52:50.394Z,15.90
2023-04-13T14:55:18.013Z,12.43
2023-04-13T14:57:46.222Z,9.65
2023-04-13T15:00:26.683Z,10.70
2023-04-13T15:02:55.303Z,9.25
2023-04-13T15:05:23.333Z,8.85
2023-04-13T15:07:51.319Z,10.68
2023-04-13T15:10:19.380Z,9.18
2023-04-13T15:12:48.283Z,9.43
2023-04-13T15:15:16.075Z,10.63
2023-04-13T15:17:43.930Z,10.20
2023-04-13T15:20:12.282Z,14.43
2023-04-13T15:22:39.817Z,11.45
2023-04-13T15:25:07.511Z,9.73
2023-04-13T15:27:35.043Z,9.48
2023-04-13T15:30:03.845Z,13.07
2023-04-13T15:32:34.269Z,12.00
2023-04-13T15:35:02.297Z,9.13
2023-04-13T15:37:30.100Z,9.75
2023-04-13T15:39:57.559Z,11.50
2023-04-13T15:42:26.427Z,10.20
2023-04-13T15:44:55.397Z,11.02
2023-04-13T15:47:23.218Z,11.02
2023-04-13T15:49:50.493Z,10.55
2023-04-13T15:52:18.238Z,13.25
2023-04-13T15:54:46.167Z,16.10
2023-04-13T15:57:14.826Z,13.65
2023-04-13T15:59:42.210Z,11.85
2023-04-13T16:02:10.592Z,16.17
2023-04-13T16:04:38.544Z,15.63
2023-04-13T16:07:13.595Z,11.95
2023-04-13T16:09:43.999Z,10.90
2023-04-13T16:12:12.061Z,14.10
2023-04-13T16:14:42.380Z,12.63
2023-04-13T16:17:10.628Z,17.08
2023-04-13T16:19:38.511Z,16.52
2023-04-13T16:22:06.454Z,11.50
2023-04-13T16:24:33.800Z,15.10
2023-04-13T16:27:02.824Z,11.27
2023-04-13T16:29:30.440Z,13.05
2023-04-13T16:31:58.136Z,15.15
2023-04-13T16:34:27.860Z,13.70
2023-04-13T16:36:56.381Z,12.75
2023-04-13T16:39:23.926Z,12.23
2023-04-13T16:41:51.817Z,13.77
2023-04-13T16:44:19.287Z,14.55
2023-04-13T16:46:47.068Z,18.63
2023-04-13T16:49:14.398Z,15.02
2023-04-13T16:51:41.958Z,20.48
2023-04-13T16:54:14.092Z,12.38
2023-04-13T16:56:41.664Z,17.30
2023-04-13T16:59:09.016Z,22.08
2023-04-13T17:01:39.174Z,13.95
2023-04-13T17:04:07.207Z,18.23
2023-04-13T17:06:36.716Z,14.23
2023-04-13T17:09:07.081Z,16.70
2023-04-13T17:11:34.918Z,13.48
2023-04-13T17:14:02.413Z,16.30
2023-04-13T17:16:30.192Z,18.88
2023-04-13T17:18:58.716Z,17.73
2023-04-13T17:21:27.551Z,19.70
2023-04-13T17:23:54.876Z,18.42
2023-04-13T17:26:22.716Z,20.80
2023-04-13T17:28:49.961Z,19.80
2023-04-13T17:31:17.685Z,25.38
2023-04-13T17:33:45.708Z,20.25
2023-04-13T17:36:13.350Z,21.85
2023-04-13T17:38:40.443Z,20.60
2023-04-13T17:41:11.195Z,18.10
2023-04-13T17:43:39.388Z,18.83
2023-04-13T17:46:08.530Z,17.02
2023-04-13T17:48:35.876Z,20.95
2023-04-13T17:51:03.557Z,21.40
2023-04-13T17:53:31.457Z,20.83
2023-04-13T17:55:59.037Z,25.02
2023-04-13T17:58:26.436Z,19.05
2023-04-13T18:00:54.092Z,22.92
2023-04-13T18:03:21.427Z,21.77
2023-04-13T18:05:49.062Z,21.70
2023-04-13T18:08:16.312Z,20.63
2023-04-13T18:10:43.877Z,19.60
2023-04-13T18:13:11.217Z,19.02
2023-04-13T18:15:38.774Z,19.13
2023-04-13T18:18:06.127Z,21.77
2023-04-13T18:20:33.818Z,21.00
2023-04-13T18:23:00.970Z,20.35
2023-04-13T18:25:28.714Z,26.98
2023-04-13T18:27:56.122Z,22.48
2023-04-13T18:30:23.686Z,18.95
2023-04-13T18:32:51.732Z,24.33
2023-04-13T18:35:19.553Z,24.98
2023-04-13T18:37:46.824Z,22.83
2023-04-13T18:40:14.344Z,24.95
2023-04-13T18:42:42.078Z,30.92
2023-04-13T18:45:10.306Z,25.63
2023-04-13T18:47:37.875Z,28.17
2023-04-13T18:50:06.436Z,26.65
2023-04-13T18:52:33.934Z,26.73
2023-04-13T18:55:01.562Z,30.60
2023-04-13T18:57:29.020Z,28.42
2023-04-13T18:59:57.589Z,28.52
2023-04-13T19:02:25.103Z,30.88
2023-04-13T19:04:53.514Z,26.25
2023-04-13T19:07:21.059Z,28.58
2023-04-13T19:09:48.586Z,31.27
2023-04-13T19:12:16.052Z,30.15
2023-04-13T19:14:44.154Z,32.92
2023-04-13T19:17:13.642Z,36.75
2023-04-13T19:19:41.251Z,40.20
2023-04-13T19:22:08.654Z,33.45
2023-04-13T19:24:36.507Z,33.42
2023-04-13T19:27:03.832Z,31.17
2023-04-13T19:29:33.612Z,38.92
2023-04-13T19:32:01.076Z,34.83
2023-04-13T19:34:28.770Z,40.00
2023-04-13T19:36:56.200Z,39.47
2023-04-13T19:39:23.918Z,44.22
2023-04-13T19:41:51.379Z,40.97
2023-04-13T19:44:19.306Z,36.40
2023-04-13T19:46:47.128Z,37.60
2023-04-13T19:49:15.330Z,38.53
2023-04-13T19:51:42.790Z,44.20
2023-04-13T19:54:10.642Z,46.72
2023-04-13T19:56:38.316Z,34.25
2023-04-13T19:59:06.909Z,39.65
2023-04-13T20:01:34.654Z,42.38
2023-04-13T20:04:07.007Z,38.33
2023-04-13T20:06:34.948Z,41.78
2023-04-13T20:09:12.613Z,39.03
2023-04-13T20:11:44.064Z,37.95
2023-04-13T20:14:12.660Z,41.53
2023-04-13T20:16:40.662Z,40.38
2023-04-13T20:19:09.688Z,39.17
2023-04-13T20:21:38.198Z,38.45
2023-04-13T20:24:06.191Z,35.45
2023-04-13T20:26:33.728Z,44.45
2023-04-13T20:29:04.228Z,42.05
2023-04-13T20:31:33.319Z,44.65
2023-04-13T20:34:03.304Z,47.85
2023-04-13T20:36:31.522Z,43.72
2023-04-13T20:38:59.650Z,56.33
2023-04-13T20:41:30.101Z,54.13
2023-04-13T20:43:59.078Z,46.50
2023-04-13T20:46:34.676Z,42.97
2023-04-13T20:49:05.403Z,47.65
2023-04-13T20:51:33.817Z,37.42
2023-04-13T20:54:03.107Z,37.20
2023-04-13T20:56:31.109Z,37.60
2023-04-13T20:58:58.925Z,35.38
2023-04-13T21:01:26.534Z,42.03
2023-04-13T21:03:54.202Z,50.03
2023-04-13T21:06:22.954Z,40.20
2023-04-13T21:08:52.919Z,37.15
2023-04-13T21:11:20.190Z,40.35
2023-04-13T21:13:47.741Z,35.55
2023-04-13T21:16:15.084Z,32.00
2023-04-13T21:18:42.969Z,30.77
2023-04-13T21:21:10.315Z,33.95
2023-04-13T21:23:38.069Z,33.22
2023-04-13T21:26:07.593Z,31.27
2023-04-13T21:28:35.365Z,33.95
2023-04-13T21:31:02.953Z,35.33
2023-04-13T21:33:31.139Z,30.65
2023-04-13T21:36:51.298Z,34.13
2023-04-13T21:38:46.480Z,34.42
2023-04-13T21:41:18.238Z,31.35
2023-04-13T21:43:46.386Z,31.92
2023-04-13T21:46:15.479Z,34.33
2023-04-13T21:48:43.967Z,31.98
2023-04-13T21:51:11.408Z,33.83
2023-04-13T21:53:39.303Z,28.65
2023-04-13T21:56:06.793Z,40.20
2023-04-13T21:58:42.866Z,31.27
2023-04-13T22:01:11.059Z,29.10
2023-04-13T22:03:40.205Z,32.85
2023-04-13T22:06:09.844Z,30.83
2023-04-13T22:08:37.984Z,28.92
2023-04-13T22:11:05.691Z,28.83
2023-04-13T22:13:33.278Z,33.42
2023-04-13T22:16:00.833Z,29.25
2023-04-13T22:18:28.452Z,25.92
2023-04-13T22:20:55.877Z,26.33
2023-04-13T22:23:23.668Z,27.55
2023-04-13T22:25:58.995Z,23.73
2023-04-13T22:28:26.505Z,24.52
2023-04-13T22:30:54.001Z,28.52
2023-04-13T22:33:21.785Z,28.40
2023-04-13T22:35:51.031Z,28.35
2023-04-13T22:38:19.130Z,26.00
2023-04-13T22:40:46.558Z,32.92
2023-04-13T22:43:14.273Z,33.35
2023-04-13T22:45:41.722Z,31.48
2023-04-13T22:48:09.204Z,29.45
2023-04-13T22:50:38.098Z,31.10
2023-04-13T22:53:05.832Z,29.02
2023-04-13T22:55:33.272Z,30.48
2023-04-13T22:58:00.928Z,28.92
2023-04-13T23:00:28.615Z,30.23
2023-04-13T23:02:56.915Z,24.83
2023-04-13T23:05:24.572Z,26.83
2023-04-13T23:07:52.371Z,28.55
2023-04-13T23:10:19.930Z,27.67
2023-04-13T23:12:47.418Z,27.38
2023-04-13T23:15:14.783Z,25.00
2023-04-13T23:17:42.257Z,23.60
2023-04-13T23:20:10.880Z,26.95
2023-04-13T23:22:38.560Z,25.45
2023-04-13T23:25:06.642Z,26.52
2023-04-13T23:27:34.243Z,27.73
2023-04-13T23:30:01.776Z,28.73
2023-04-13T23:32:29.423Z,28.77
2023-04-13T23:34:56.656Z,27.33
2023-04-13T23:37:24.378Z,27.25
2023-04-13T23:39:51.503Z,30.48
2023-04-13T23:42:19.154Z,32.13
2023-04-13T23:44:46.514Z,26.08
2023-04-13T23:47:14.131Z,30.92
2023-04-13T23:49:42.263Z,30.08
2023-04-13T23:52:10.111Z,32.63
2023-04-13T23:54:37.442Z,31.77
2023-04-13T23:57:05.045Z,34.00
2023-04-13T23:59:32.593Z,38.95
